createdAt,value
2023-05-24T00:01:14.320Z,69.60
2023-05-24T00:03:42.399Z,69.80
2023-05-24T00:06:11.152Z,70.20
2023-05-24T00:08:39.093Z,70.20
2023-05-24T00:11:07.144Z,70.10
2023-05-24T00:13:36.425Z,70.20
2023-05-24T00:16:05.042Z,70.30
2023-05-24T00:18:33.075Z,70.60
2023-05-24T00:21:01.062Z,70.50
2023-05-24T00:23:28.989Z,70.40
2023-05-24T00:25:56.882Z,70.40
2023-05-24T00:28:24.810Z,70.40
2023-05-24T00:30:54.738Z,70.70
2023-05-24T00:33:23.358Z,70.70
2023-05-24T00:35:54.413Z,70.40
2023-05-24T00:38:22.389Z,70.00
2023-05-24T00:40:50.327Z,69.70
2023-05-24T00:43:19.090Z,69.60
2023-05-24T00:45:47.082Z,69.60
2023-05-24T00:48:16.394Z,69.50
2023-05-24T00:50:44.484Z,70.00
2023-05-24T00:53:12.514Z,70.20
2023-05-24T00:55:41.103Z,70.20
2023-05-24T00:58:09.048Z,70.20
2023-05-24T01:00:36.982Z,70.10
2023-05-24T01:03:05.404Z,70.30
2023-05-24T01:05:34.831Z,70.60
2023-05-24T01:08:05.595Z,70.50
2023-05-24T01:10:36.061Z,70.40
2023-05-24T01:13:08.415Z,70.40
2023-05-24T01:15:42.779Z,70.40
2023-05-24T01:18:13.971Z,70.70
2023-05-24T01:20:43.420Z,70.70
2023-05-24T01:23:17.729Z,70.40
2023-05-24T01:25:54.813Z,69.90
2023-05-24T01:28:24.125Z,69.70
2023-05-24T01:30:54.437Z,69.60
2023-05-24T01:33:25.004Z,69.50
2023-05-24T01:35:52.942Z,69.70
2023-05-24T01:38:20.934Z,70.00
2023-05-24T01:40:49.047Z,70.20
2023-05-24T01:43:19.035Z,70.30
2023-05-24T01:45:53.133Z,70.20
2023-05-24T01:48:25.850Z,70.10
2023-05-24T01:50:54.492Z,70.40
2023-05-24T01:53:22.443Z,70.60
2023-05-24T01:55:50.630Z,70.40
2023-05-24T01:58:18.717Z,70.20
2023-05-24T02:00:46.751Z,69.80
2023-05-24T02:03:16.540Z,69.60
2023-05-24T02:05:44.837Z,69.50
2023-05-24T02:08:13.767Z,69.50
2023-05-24T02:10:42.067Z,69.70
2023-05-24T02:13:10.468Z,70.00
2023-05-24T02:15:38.546Z,70.10
2023-05-24T02:18:08.044Z,70.10
2023-05-24T02:20:37.853Z,70.20
2023-05-24T02:23:05.890Z,70.10
2023-05-24T02:25:33.830Z,70.40
2023-05-24T02:28:01.794Z,70.40
2023-05-24T02:30:29.756Z,70.40
2023-05-24T02:32:58.290Z,70.20
2023-05-24T02:35:26.682Z,70.30
2023-05-24T02:37:58.630Z,70.60
2023-05-24T02:40:27.161Z,70.60
2023-05-24T02:42:57.155Z,71.00
2023-05-24T02:45:25.188Z,69.90
2023-05-24T02:47:53.205Z,69.60
2023-05-24T02:50:21.173Z,69.60
2023-05-24T02:52:49.139Z,70.20
2023-05-24T02:55:18.781Z,69.60
2023-05-24T02:57:47.964Z,69.90
2023-05-24T03:00:16.577Z,70.10
2023-05-24T03:02:47.648Z,70.20
2023-05-24T03:05:18.433Z,70.00
2023-05-24T03:07:46.513Z,70.00
2023-05-24T03:10:15.976Z,70.30
2023-05-24T03:12:47.042Z,70.50
2023-05-24T03:15:15.404Z,70.30
2023-05-24T03:17:43.538Z,70.10
2023-05-24T03:20:12.413Z,69.80
2023-05-24T03:22:40.472Z,69.70
2023-05-24T03:25:09.640Z,70.00
2023-05-24T03:27:37.615Z,70.00
2023-05-24T03:30:08.737Z,70.00
2023-05-24T03:32:45.352Z,69.90
2023-05-24T03:35:13.335Z,69.80
2023-05-24T03:37:41.725Z,70.20
2023-05-24T03:40:10.345Z,70.20
2023-05-24T03:42:51.661Z,70.20
2023-05-24T03:45:34.425Z,70.10
2023-05-24T03:48:07.199Z,70.10
2023-05-24T03:50:35.657Z,70.50
2023-05-24T03:53:03.777Z,70.50
2023-05-24T03:55:31.791Z,70.10
2023-05-24T03:57:59.742Z,70.00
2023-05-24T04:00:29.192Z,69.90
2023-05-24T04:02:57.655Z,70.00
2023-05-24T04:05:27.165Z,70.10
2023-05-24T04:07:55.302Z,70.10
2023-05-24T04:10:23.812Z,70.00
2023-05-24T04:12:51.727Z,69.90
2023-05-24T04:15:19.676Z,70.10
2023-05-24T04:17:54.873Z,70.30
2023-05-24T04:20:25.391Z,70.30
2023-05-24T04:22:53.636Z,70.20
2023-05-24T04:25:21.613Z,70.10
2023-05-24T04:27:51.305Z,70.40
2023-05-24T04:30:19.527Z,70.40
2023-05-24T04:32:49.484Z,70.30
2023-05-24T04:35:18.208Z,69.90
2023-05-24T04:37:46.674Z,69.50
2023-05-24T04:40:15.982Z,69.60
2023-05-24T04:42:43.926Z,69.30
2023-05-24T04:45:12.447Z,69.40
2023-05-24T04:47:40.529Z,69.40
2023-05-24T04:50:10.871Z,70.00
2023-05-24T04:52:38.883Z,70.00
2023-05-24T04:55:07.736Z,69.80
2023-05-24T04:57:35.713Z,69.90
2023-05-24T05:00:04.693Z,70.00
2023-05-24T05:02:33.064Z,70.30
2023-05-24T05:05:01.223Z,70.20
2023-05-24T05:07:30.584Z,70.10
2023-05-24T05:09:58.511Z,70.10
2023-05-24T05:12:26.455Z,70.30
2023-05-24T05:14:54.421Z,70.50
2023-05-24T05:17:22.773Z,70.40
2023-05-24T05:19:50.840Z,70.10
2023-05-24T05:22:18.837Z,69.90
2023-05-24T05:24:48.149Z,69.70
2023-05-24T05:27:16.152Z,69.90
2023-05-24T05:29:44.076Z,69.90
2023-05-24T05:32:12.098Z,69.90
2023-05-24T05:34:40.079Z,69.80
2023-05-24T05:37:08.373Z,69.80
2023-05-24T05:39:36.441Z,70.10
2023-05-24T05:42:06.322Z,70.10
2023-05-24T05:44:34.233Z,70.10
2023-05-24T05:47:03.849Z,70.10
2023-05-24T05:49:32.755Z,70.10
2023-05-24T05:52:01.056Z,70.30
2023-05-24T05:54:29.005Z,70.40
2023-05-24T05:56:57.081Z,70.30
2023-05-24T05:59:26.891Z,70.00
2023-05-24T06:01:54.821Z,69.80
2023-05-24T06:04:22.773Z,69.70
2023-05-24T06:06:50.765Z,70.10
2023-05-24T06:09:18.698Z,70.00
2023-05-24T06:11:46.583Z,69.90
2023-05-24T06:14:19.726Z,69.90
2023-05-24T06:16:49.260Z,69.90
2023-05-24T06:19:18.235Z,70.30
2023-05-24T06:21:47.975Z,70.30
2023-05-24T06:24:20.404Z,70.10
2023-05-24T06:26:48.633Z,69.80
2023-05-24T06:29:16.624Z,69.70
2023-05-24T06:31:44.594Z,69.70
2023-05-24T06:34:16.972Z,70.00
2023-05-24T06:36:47.118Z,70.00
2023-05-24T06:39:15.117Z,69.80
2023-05-24T06:41:43.253Z,69.80
2023-05-24T06:44:11.213Z,70.00
2023-05-24T06:46:39.334Z,70.30
2023-05-24T06:49:07.392Z,70.20
2023-05-24T06:51:38.077Z,70.00
2023-05-24T06:54:06.685Z,70.00
2023-05-24T06:56:34.737Z,70.20
2023-05-24T06:59:02.706Z,71.20
2023-05-24T07:01:30.813Z,70.30
2023-05-24T07:03:59.135Z,70.00
2023-05-24T07:06:27.176Z,69.90
2023-05-24T07:08:56.475Z,69.80
2023-05-24T07:11:24.508Z,69.80
2023-05-24T07:13:52.504Z,70.00
2023-05-24T07:16:20.697Z,69.90
2023-05-24T07:18:48.737Z,69.80
2023-05-24T07:21:16.678Z,69.90
2023-05-24T07:23:44.573Z,70.00
2023-05-24T07:26:13.964Z,70.20
2023-05-24T07:28:41.909Z,70.00
2023-05-24T07:31:10.136Z,70.70
2023-05-24T07:33:38.587Z,70.80
2023-05-24T07:36:07.205Z,70.20
2023-05-24T07:38:39.022Z,70.50
2023-05-24T07:41:07.217Z,70.40
2023-05-24T07:43:37.703Z,70.10
2023-05-24T07:46:06.515Z,69.70
2023-05-24T07:48:34.558Z,69.50
2023-05-24T07:51:02.592Z,69.30
2023-05-24T07:53:30.548Z,70.00
2023-05-24T07:55:58.518Z,69.60
2023-05-24T07:58:26.478Z,69.90
2023-05-24T08:00:55.801Z,70.10
2023-05-24T08:03:25.895Z,69.90
2023-05-24T08:05:53.990Z,69.90
2023-05-24T08:08:21.911Z,70.00
2023-05-24T08:10:49.860Z,70.20
2023-05-24T08:13:17.977Z,70.40
2023-05-24T08:15:46.093Z,70.30
2023-05-24T08:18:15.498Z,70.20
2023-05-24T08:20:43.482Z,70.20
2023-05-24T08:23:11.561Z,70.40
2023-05-24T08:25:41.153Z,70.50
2023-05-24T08:28:10.718Z,70.50
2023-05-24T08:30:38.889Z,70.10
2023-05-24T08:33:06.954Z,69.80
2023-05-24T08:35:36.922Z,69.60
2023-05-24T08:38:04.835Z,69.30
2023-05-24T08:40:32.747Z,69.30
2023-05-24T08:43:01.444Z,69.40
2023-05-24T08:45:30.980Z,69.70
2023-05-24T08:47:59.360Z,70.00
2023-05-24T08:50:27.403Z,69.90
2023-05-24T08:52:56.685Z,70.00
2023-05-24T08:55:24.633Z,70.10
2023-05-24T08:57:52.682Z,70.10
2023-05-24T09:00:21.945Z,70.30
2023-05-24T09:02:50.059Z,70.20
2023-05-24T09:05:21.497Z,70.20
2023-05-24T09:07:50.235Z,70.30
2023-05-24T09:10:21.218Z,70.40
2023-05-24T09:12:51.430Z,70.60
2023-05-24T09:15:19.424Z,70.50
2023-05-24T09:17:47.491Z,70.00
2023-05-24T09:20:15.579Z,69.90
2023-05-24T09:22:44.029Z,69.60
2023-05-24T09:25:14.048Z,69.70
2023-05-24T09:27:47.416Z,69.90
2023-05-24T09:30:16.887Z,69.80
2023-05-24T09:32:56.162Z,69.80
2023-05-24T09:35:24.263Z,70.00
2023-05-24T09:37:54.484Z,70.10
2023-05-24T09:40:22.707Z,70.30
2023-05-24T09:43:03.303Z,70.00
2023-05-24T09:45:31.852Z,69.80
2023-05-24T09:47:59.897Z,69.60
2023-05-24T09:50:28.996Z,70.00
2023-05-24T09:52:56.958Z,70.00
2023-05-24T09:55:27.846Z,69.80
2023-05-24T09:58:05.067Z,69.90
2023-05-24T10:00:36.395Z,70.00
2023-05-24T10:03:06.696Z,70.10
2023-05-24T10:05:34.881Z,70.10
2023-05-24T10:08:04.984Z,70.10
2023-05-24T10:10:34.308Z,70.10
2023-05-24T10:13:03.889Z,70.30
2023-05-24T10:15:31.875Z,70.40
2023-05-24T10:18:00.468Z,70.40
2023-05-24T10:20:28.510Z,70.30
2023-05-24T10:23:00.190Z,70.00
2023-05-24T10:25:29.195Z,69.70
2023-05-24T10:27:58.409Z,69.70
2023-05-24T10:30:33.587Z,70.00
2023-05-24T10:33:02.127Z,69.90
2023-05-24T10:35:30.382Z,69.80
2023-05-24T10:37:58.384Z,69.90
2023-05-24T10:40:26.405Z,70.10
2023-05-24T10:42:57.465Z,70.20
2023-05-24T10:45:35.825Z,70.30
2023-05-24T10:48:11.299Z,70.20
2023-05-24T10:50:39.311Z,70.30
2023-05-24T10:53:13.697Z,70.40
2023-05-24T10:55:54.902Z,70.60
2023-05-24T10:58:24.390Z,70.40
2023-05-24T11:00:54.233Z,70.10
2023-05-24T11:03:24.744Z,69.80
2023-05-24T11:05:54.429Z,69.50
2023-05-24T11:08:26.499Z,69.60
2023-05-24T11:11:22.169Z,69.60
2023-05-24T11:13:50.871Z,69.90
2023-05-24T11:16:35.681Z,70.80
2023-05-24T11:19:14.419Z,70.00
2023-05-24T11:21:42.696Z,70.10
2023-05-24T11:24:10.629Z,70.20
2023-05-24T11:26:38.580Z,70.20
2023-05-24T11:29:07.375Z,70.40
2023-05-24T11:31:44.728Z,70.30
2023-05-24T11:34:12.884Z,70.30
2023-05-24T11:36:41.084Z,70.20
2023-05-24T11:39:09.539Z,70.30
2023-05-24T11:41:39.904Z,70.50
2023-05-24T11:44:08.788Z,70.50
2023-05-24T11:46:39.443Z,70.30
2023-05-24T11:49:07.772Z,69.80
2023-05-24T11:51:37.158Z,69.60
2023-05-24T11:54:05.266Z,69.40
2023-05-24T11:56:34.046Z,69.40
2023-05-24T11:59:09.578Z,69.60
2023-05-24T12:01:39.198Z,69.80
2023-05-24T12:04:08.918Z,70.00
2023-05-24T12:06:38.732Z,70.00
2023-05-24T12:09:08.982Z,70.10
2023-05-24T12:11:39.535Z,70.20
2023-05-24T12:14:07.752Z,70.30
2023-05-24T12:16:38.800Z,70.70
2023-05-24T12:19:17.009Z,70.30
2023-05-24T12:21:56.328Z,70.40
2023-05-24T12:24:24.734Z,70.40
2023-05-24T12:26:53.553Z,70.70
2023-05-24T12:29:21.497Z,70.50
2023-05-24T12:31:51.313Z,70.40
2023-05-24T12:34:20.231Z,70.00
2023-05-24T12:36:50.140Z,69.60
2023-05-24T12:39:21.548Z,69.50
2023-05-24T12:41:53.069Z,69.60
2023-05-24T12:44:25.116Z,69.80
2023-05-24T12:46:54.591Z,69.90
2023-05-24T12:49:22.799Z,70.20
2023-05-24T12:51:54.190Z,70.20
2023-05-24T12:54:24.177Z,70.30
2023-05-24T12:56:54.897Z,70.30
2023-05-24T12:59:24.159Z,70.50
2023-05-24T13:01:52.517Z,70.50
2023-05-24T13:04:24.304Z,70.40
2023-05-24T13:06:52.384Z,71.20
2023-05-24T13:09:22.962Z,70.50
2023-05-24T13:11:50.949Z,71.40
2023-05-24T13:14:19.702Z,70.60
2023-05-24T13:16:47.991Z,70.30
2023-05-24T13:19:16.540Z,70.00
2023-05-24T13:21:45.997Z,69.60
2023-05-24T13:24:16.550Z,69.60
2023-05-24T13:26:44.820Z,69.60
2023-05-24T13:31:46.275Z,70.00
2023-05-24T13:34:14.373Z,70.10
2023-05-24T13:36:42.908Z,70.20
2023-05-24T13:39:16.131Z,70.30
2023-05-24T13:41:45.152Z,70.30
2023-05-24T13:44:13.356Z,70.40
2023-05-24T13:46:41.574Z,70.40
2023-05-24T13:49:11.348Z,70.40
2023-05-24T13:51:39.454Z,70.40
2023-05-24T13:54:07.986Z,70.50
2023-05-24T13:56:38.625Z,70.50
2023-05-24T13:59:07.032Z,70.60
2023-05-24T14:01:35.846Z,70.50
2023-05-24T14:04:04.165Z,70.30
2023-05-24T14:06:34.865Z,69.90
2023-05-24T14:09:02.822Z,69.50
2023-05-24T14:11:31.759Z,69.40
2023-05-24T14:16:33.000Z,69.70
2023-05-24T14:19:01.097Z,69.80
2023-05-24T14:21:29.096Z,70.80
2023-05-24T14:23:57.043Z,70.10
2023-05-24T14:26:25.011Z,70.10
2023-05-24T14:28:56.089Z,70.20
2023-05-24T14:31:26.295Z,70.30
2023-05-24T14:33:54.315Z,70.50
2023-05-24T14:36:22.338Z,70.40
2023-05-24T14:38:50.357Z,70.40
2023-05-24T14:41:18.344Z,70.40
2023-05-24T14:43:46.343Z,70.40
2023-05-24T14:46:14.664Z,70.60
2023-05-24T14:48:44.065Z,70.50
2023-05-24T14:51:14.568Z,70.50
2023-05-24T14:53:42.499Z,70.50
2023-05-24T14:56:10.472Z,70.70
2023-05-24T14:58:38.434Z,70.80
2023-05-24T15:01:08.076Z,70.50
2023-05-24T15:03:36.402Z,70.20
2023-05-24T15:06:06.309Z,69.80
2023-05-24T15:08:35.180Z,69.50
2023-05-24T15:11:03.150Z,69.30
2023-05-24T15:13:31.121Z,69.30
2023-05-24T15:16:00.462Z,70.30
2023-05-24T15:18:28.981Z,69.90
2023-05-24T15:20:57.204Z,70.00
2023-05-24T15:23:26.839Z,70.00
2023-05-24T15:25:54.812Z,70.00
2023-05-24T15:28:24.762Z,70.10
2023-05-24T15:30:54.383Z,70.50
2023-05-24T15:33:26.528Z,70.40
2023-05-24T15:35:54.902Z,70.40
2023-05-24T15:38:22.873Z,70.40
2023-05-24T15:40:52.305Z,70.40
2023-05-24T15:43:20.581Z,70.60
2023-05-24T15:45:48.553Z,70.70
2023-05-24T15:48:16.524Z,70.40
2023-05-24T15:51:09.259Z,70.20
2023-05-24T15:53:32.712Z,69.90
2023-05-24T15:56:02.067Z,70.00
2023-05-24T15:58:30.027Z,70.20
2023-05-24T16:00:57.978Z,70.00
2023-05-24T16:03:26.117Z,70.00
2023-05-24T16:05:54.189Z,70.10
2023-05-24T16:08:27.446Z,70.10
2023-05-24T16:10:55.515Z,70.40
2023-05-24T16:13:24.805Z,70.30
2023-05-24T16:15:52.816Z,70.20
2023-05-24T16:18:22.516Z,70.20
2023-05-24T16:20:51.014Z,70.30
2023-05-24T16:23:19.276Z,70.50
2023-05-24T16:25:47.214Z,70.30
2023-05-24T16:28:15.169Z,70.20
2023-05-24T16:30:45.856Z,70.20
2023-05-24T16:33:13.829Z,70.20
2023-05-24T16:35:41.753Z,70.40
2023-05-24T16:38:09.690Z,70.30
2023-05-24T16:40:37.637Z,70.10
2023-05-24T16:43:05.585Z,69.70
2023-05-24T16:45:33.541Z,69.40
2023-05-24T16:48:03.541Z,69.20
2023-05-24T16:50:31.542Z,69.20
2023-05-24T16:52:59.506Z,69.20
2023-05-24T16:55:27.493Z,69.30
2023-05-24T16:57:55.640Z,69.50
2023-05-24T17:00:26.610Z,69.20
2023-05-24T17:02:54.771Z,69.30
2023-05-24T17:05:26.931Z,69.50
2023-05-24T17:07:55.851Z,69.60
2023-05-24T17:10:23.843Z,69.90
2023-05-24T17:12:51.803Z,69.60
2023-05-24T17:15:19.806Z,69.40
2023-05-24T17:17:47.760Z,69.00
2023-05-24T17:20:16.142Z,68.50
2023-05-24T17:22:45.616Z,68.90
2023-05-24T17:25:13.575Z,69.20
2023-05-24T17:27:41.519Z,69.10
2023-05-24T17:30:12.275Z,69.00
2023-05-24T17:32:40.280Z,69.10
2023-05-24T17:35:09.081Z,69.30
2023-05-24T17:37:37.287Z,69.50
2023-05-24T17:40:07.980Z,69.30
2023-05-24T17:42:35.907Z,69.40
2023-05-24T17:45:04.610Z,69.50
2023-05-24T17:47:35.579Z,69.60
2023-05-24T17:50:03.578Z,70.00
2023-05-24T17:52:31.758Z,69.80
2023-05-24T17:54:59.708Z,69.50
2023-05-24T17:57:29.071Z,69.30
2023-05-24T17:59:57.085Z,69.10
2023-05-24T18:02:25.048Z,68.80
2023-05-24T18:04:55.342Z,68.90
2023-05-24T18:07:24.086Z,69.10
2023-05-24T18:09:52.190Z,69.30
2023-05-24T18:12:20.399Z,69.60
2023-05-24T18:14:49.726Z,69.50
2023-05-24T18:17:17.810Z,69.50
2023-05-24T18:19:46.201Z,69.60
2023-05-24T18:22:14.206Z,69.70
2023-05-24T18:24:42.155Z,69.90
2023-05-24T18:27:10.141Z,69.80
2023-05-24T18:29:38.528Z,69.70
2023-05-24T18:32:07.964Z,69.80
2023-05-24T18:34:36.009Z,69.90
2023-05-24T18:37:04.115Z,70.10
2023-05-24T18:39:32.048Z,70.10
2023-05-24T18:41:59.968Z,69.80
2023-05-24T18:44:27.918Z,69.40
2023-05-24T18:46:57.919Z,69.20
2023-05-24T18:49:27.450Z,69.00
2023-05-24T18:51:55.384Z,69.20
2023-05-24T18:54:24.557Z,69.20
2023-05-24T18:56:52.483Z,69.50
2023-05-24T18:59:21.630Z,69.70
2023-05-24T19:01:49.861Z,69.50
2023-05-24T19:04:17.802Z,69.50
2023-05-24T19:06:47.165Z,69.60
2023-05-24T19:09:15.799Z,69.90
2023-05-24T19:11:47.432Z,70.00
2023-05-24T19:14:17.688Z,69.80
2023-05-24T19:16:45.703Z,69.80
2023-05-24T19:19:13.705Z,69.80
2023-05-24T19:21:42.443Z,70.00
2023-05-24T19:24:11.763Z,70.10
2023-05-24T19:26:39.764Z,70.70
2023-05-24T19:29:07.745Z,69.60
2023-05-24T19:31:36.206Z,69.30
2023-05-24T19:34:04.145Z,69.20
2023-05-24T19:36:33.462Z,69.10
2023-05-24T19:39:01.408Z,69.10
2023-05-24T19:41:30.998Z,69.20
2023-05-24T19:43:59.187Z,69.60
2023-05-24T19:46:27.242Z,69.60
2023-05-24T19:48:55.245Z,69.60
2023-05-24T19:51:23.193Z,69.60
2023-05-24T19:53:51.145Z,69.70
2023-05-24T19:56:20.604Z,70.10
2023-05-24T19:58:50.066Z,70.00
2023-05-24T20:01:18.078Z,69.80
2023-05-24T20:03:48.507Z,69.60
2023-05-24T20:06:21.390Z,69.50
2023-05-24T20:08:49.353Z,69.80
2023-05-24T20:11:17.666Z,69.70
2023-05-24T20:13:45.665Z,69.50
2023-05-24T20:16:14.975Z,69.50
2023-05-24T20:18:42.908Z,69.60
2023-05-24T20:21:11.159Z,70.70
2023-05-24T20:23:39.120Z,70.10
2023-05-24T20:26:07.113Z,69.90
2023-05-24T20:28:35.024Z,69.70
2023-05-24T20:31:05.781Z,69.40
2023-05-24T20:33:38.296Z,69.40
2023-05-24T20:36:09.783Z,69.80
2023-05-24T20:38:39.477Z,69.70
2023-05-24T20:41:07.489Z,69.50
2023-05-24T20:43:35.480Z,69.60
2023-05-24T20:46:03.548Z,69.70
2023-05-24T20:48:35.826Z,70.10
2023-05-24T20:51:03.774Z,69.90
2023-05-24T20:53:31.796Z,69.90
2023-05-24T20:56:01.726Z,69.80
2023-05-24T20:58:30.781Z,69.90
2023-05-24T21:00:59.187Z,70.20
2023-05-24T21:03:27.363Z,70.20
2023-05-24T21:05:56.719Z,69.80
2023-05-24T21:08:24.648Z,69.60
2023-05-24T21:10:55.524Z,69.40
2023-05-24T21:13:25.333Z,69.60
2023-05-24T21:15:53.376Z,69.80
2023-05-24T21:18:21.350Z,69.70
2023-05-24T21:20:49.546Z,69.40
2023-05-24T21:23:18.903Z,69.50
2023-05-24T21:25:46.849Z,69.80
2023-05-24T21:28:15.048Z,70.00
2023-05-24T21:30:45.786Z,69.90
2023-05-24T21:33:13.881Z,69.70
2023-05-24T21:35:42.101Z,69.90
2023-05-24T21:38:10.138Z,70.00
2023-05-24T21:40:39.478Z,70.20
2023-05-24T21:43:12.016Z,70.10
2023-05-24T21:45:40.027Z,69.80
2023-05-24T21:48:08.291Z,69.50
2023-05-24T21:50:37.534Z,69.40
2023-05-24T21:53:05.502Z,69.40
2023-05-24T21:55:33.450Z,69.40
2023-05-24T21:58:02.765Z,69.60
2023-05-24T22:00:34.240Z,69.80
2023-05-24T22:03:02.235Z,69.80
2023-05-24T22:05:30.283Z,69.90
2023-05-24T22:07:58.283Z,70.00
2023-05-24T22:10:26.596Z,70.00
2023-05-24T22:12:54.518Z,70.30
2023-05-24T22:15:26.483Z,70.40
2023-05-24T22:17:58.573Z,70.10
2023-05-24T22:20:27.536Z,69.40
2023-05-24T22:22:55.602Z,68.90
2023-05-24T22:25:23.554Z,68.20
2023-05-24T22:27:51.646Z,67.50
2023-05-24T22:30:19.643Z,67.00
2023-05-24T22:32:49.072Z,66.40
2023-05-24T22:35:17.248Z,66.10
2023-05-24T22:37:46.528Z,65.90
2023-05-24T22:40:18.038Z,65.70
2023-05-24T22:42:46.060Z,65.80
2023-05-24T22:45:14.365Z,66.10
2023-05-24T22:47:42.362Z,66.90
2023-05-24T22:50:11.902Z,67.20
2023-05-24T22:52:42.769Z,67.40
2023-05-24T22:55:11.275Z,67.70
2023-05-24T22:57:39.243Z,67.90
2023-05-24T23:00:08.806Z,68.80
2023-05-24T23:02:38.570Z,68.90
2023-05-24T23:05:07.387Z,68.70
2023-05-24T23:07:39.867Z,68.70
2023-05-24T23:10:09.326Z,69.00
2023-05-24T23:12:42.321Z,69.60
2023-05-24T23:15:16.687Z,69.60
2023-05-24T23:17:48.131Z,69.20
2023-05-24T23:20:16.164Z,68.80
2023-05-24T23:22:46.859Z,68.60
2023-05-24T23:25:14.803Z,68.60
2023-05-24T23:27:42.740Z,68.50
2023-05-24T23:30:11.168Z,68.50
2023-05-24T23:32:40.896Z,69.40
2023-05-24T23:35:09.653Z,69.40
2023-05-24T23:37:37.610Z,69.30
2023-05-24T23:40:08.541Z,69.10
2023-05-24T23:42:36.951Z,69.10
2023-05-24T23:45:05.818Z,69.90
2023-05-24T23:47:33.784Z,69.70
2023-05-24T23:50:01.689Z,69.50
2023-05-24T23:52:29.619Z,69.40
2023-05-24T23:54:57.574Z,70.10
2023-05-24T23:57:27.112Z,70.10
2023-05-24T23:59:59.676Z,70.20
